createdAt,value
2022-08-05T00:01:36.328Z,31.40
2022-08-05T00:04:17.701Z,31.28
2022-08-05T00:06:45.098Z,31.37
2022-08-05T00:09:15.922Z,31.43
2022-08-05T00:11:49.287Z,31.60
2022-08-05T00:14:19.976Z,31.73
2022-08-05T00:16:53.000Z,31.25
2022-08-05T00:19:32.892Z,31.47
2022-08-05T00:22:02.413Z,31.56
2022-08-05T00:24:31.207Z,31.62
2022-08-05T00:27:04.632Z,31.55
2022-08-05T00:29:38.408Z,31.58
2022-08-05T00:32:13.456Z,31.56
2022-08-05T00:35:05.780Z,31.57
2022-08-05T00:37:50.944Z,31.44
2022-08-05T00:40:27.072Z,31.55
2022-08-05T00:42:56.731Z,31.66
2022-08-05T00:45:28.157Z,31.52
2022-08-05T00:48:09.529Z,31.54
2022-08-05T00:50:39.317Z,31.61
2022-08-05T00:53:09.887Z,31.66
2022-08-05T00:55:56.577Z,31.51
2022-08-05T00:58:27.377Z,31.55
2022-08-05T01:00:54.978Z,31.58
2022-08-05T01:03:23.445Z,31.52
2022-08-05T01:05:51.641Z,31.52
2022-08-05T01:08:30.292Z,31.54
2022-08-05T01:11:33.425Z,31.49
2022-08-05T01:14:15.473Z,31.35
2022-08-05T01:17:03.073Z,31.57
2022-08-05T01:20:00.702Z,31.62
2022-08-05T01:22:31.975Z,31.67
2022-08-05T01:25:40.008Z,31.64
2022-08-05T01:28:35.028Z,31.59
2022-08-05T01:31:09.771Z,31.71
2022-08-05T01:33:49.160Z,31.74
2022-08-05T01:36:28.083Z,31.71
2022-08-05T01:38:57.134Z,31.70
2022-08-05T01:41:33.666Z,31.66
2022-08-05T01:44:03.174Z,31.68
2022-08-05T01:46:42.002Z,31.60
2022-08-05T01:49:24.241Z,31.59
2022-08-05T01:52:00.076Z,31.52
2022-08-05T01:54:52.795Z,31.51
2022-08-05T01:58:10.467Z,31.47
2022-08-05T02:00:15.132Z,31.45
2022-08-05T02:02:53.577Z,31.44
2022-08-05T02:05:25.574Z,31.44
2022-08-05T02:08:01.352Z,31.39
2022-08-05T02:10:35.579Z,31.38
2022-08-05T02:13:16.369Z,31.37
2022-08-05T02:16:16.577Z,31.38
2022-08-05T02:19:07.238Z,31.36
2022-08-05T02:21:43.252Z,31.36
2022-08-05T02:24:23.172Z,31.29
2022-08-05T02:27:00.536Z,31.28
2022-08-05T02:29:59.077Z,31.27
2022-08-05T02:32:31.575Z,31.27
2022-08-05T02:35:14.247Z,31.26
2022-08-05T02:37:53.974Z,31.30
2022-08-05T02:40:24.225Z,31.31
2022-08-05T02:42:54.512Z,31.32
2022-08-05T02:45:25.247Z,31.30
2022-08-05T02:48:07.017Z,31.30
2022-08-05T02:50:47.302Z,31.27
2022-08-05T02:53:18.727Z,31.25
2022-08-05T02:55:59.639Z,31.21
2022-08-05T02:58:30.284Z,31.18
2022-08-05T03:01:01.824Z,31.14
2022-08-05T03:04:02.764Z,31.11
2022-08-05T03:06:55.331Z,31.05
2022-08-05T03:09:17.686Z,31.02
2022-08-05T03:11:56.640Z,31.04
2022-08-05T03:14:25.332Z,30.99
2022-08-05T03:16:53.713Z,30.95
2022-08-05T03:19:34.082Z,30.94
2022-08-05T03:22:04.830Z,30.95
2022-08-05T03:24:47.252Z,30.93
2022-08-05T03:27:21.826Z,30.92
2022-08-05T03:30:07.384Z,30.96
2022-08-05T03:32:37.428Z,30.94
2022-08-05T03:35:05.916Z,30.95
2022-08-05T03:37:46.324Z,30.97
2022-08-05T03:40:15.324Z,30.98
2022-08-05T03:42:52.109Z,30.99
2022-08-05T03:45:22.993Z,30.97
2022-08-05T03:47:51.859Z,30.96
2022-08-05T03:50:25.806Z,30.97
2022-08-05T03:55:53.008Z,30.98
2022-08-05T03:56:17.135Z,30.96
2022-08-05T03:58:55.539Z,30.93
2022-08-05T04:01:28.775Z,30.92
2022-08-05T04:04:10.042Z,30.91
2022-08-05T04:06:47.798Z,30.89
2022-08-05T04:09:20.464Z,30.86
2022-08-05T04:11:56.652Z,30.83
2022-08-05T04:14:30.206Z,30.83
2022-08-05T04:16:59.902Z,30.85
2022-08-05T04:19:28.738Z,30.86
2022-08-05T04:22:09.131Z,30.86
2022-08-05T04:24:52.578Z,30.81
2022-08-05T04:27:33.197Z,30.80
2022-08-05T04:30:09.905Z,30.80
2022-08-05T04:32:37.641Z,30.75
2022-08-05T04:35:07.186Z,30.76
2022-08-05T04:38:01.156Z,30.75
2022-08-05T04:40:34.053Z,30.66
2022-08-05T04:43:01.296Z,30.71
2022-08-05T04:45:48.552Z,30.67
2022-08-05T04:48:18.643Z,30.72
2022-08-05T04:51:02.863Z,30.70
2022-08-05T04:53:38.817Z,30.66
2022-08-05T04:56:32.470Z,30.69
2022-08-05T04:58:59.520Z,30.71
2022-08-05T05:02:07.733Z,30.70
2022-08-05T05:04:31.552Z,30.61
2022-08-05T05:06:58.752Z,30.68
2022-08-05T05:09:25.844Z,30.68
2022-08-05T05:11:56.848Z,30.70
2022-08-05T05:14:31.899Z,30.56
2022-08-05T05:17:00.933Z,30.68
2022-08-05T05:19:37.005Z,30.70
2022-08-05T05:22:24.596Z,30.77
2022-08-05T05:24:57.319Z,30.80
2022-08-05T05:27:41.677Z,30.82
2022-08-05T05:30:29.804Z,30.82
2022-08-05T05:33:09.203Z,30.81
2022-08-05T05:35:45.129Z,30.83
2022-08-05T05:38:14.108Z,30.81
2022-08-05T05:40:49.942Z,30.78
2022-08-05T05:43:28.167Z,30.74
2022-08-05T05:46:12.177Z,30.65
2022-08-05T05:48:42.208Z,30.71
2022-08-05T05:51:15.518Z,30.70
2022-08-05T05:53:54.132Z,30.71
2022-08-05T05:56:31.582Z,30.77
2022-08-05T05:59:07.413Z,30.74
2022-08-05T06:01:37.617Z,30.82
2022-08-05T06:04:11.299Z,30.62
2022-08-05T06:06:46.651Z,30.67
2022-08-05T06:09:24.819Z,30.62
2022-08-05T06:12:01.659Z,30.74
2022-08-05T06:14:31.180Z,30.74
2022-08-05T06:16:59.368Z,30.81
2022-08-05T06:19:34.556Z,30.84
2022-08-05T06:22:07.171Z,30.68
2022-08-05T06:24:36.499Z,30.88
2022-08-05T06:27:05.112Z,30.87
2022-08-05T06:29:52.107Z,30.95
2022-08-05T06:32:29.853Z,31.01
2022-08-05T06:34:59.268Z,31.01
2022-08-05T06:37:56.354Z,31.08
2022-08-05T06:40:18.144Z,31.11
2022-08-05T06:42:51.863Z,31.17
2022-08-05T06:45:44.015Z,31.22
2022-08-05T06:48:36.368Z,31.27
2022-08-05T06:50:56.039Z,31.29
2022-08-05T06:53:27.759Z,31.34
2022-08-05T06:56:00.096Z,31.31
2022-08-05T06:58:34.882Z,31.32
2022-08-05T07:01:05.369Z,31.38
2022-08-05T07:03:35.098Z,31.39
2022-08-05T07:06:06.178Z,31.46
2022-08-05T07:08:47.552Z,31.48
2022-08-05T07:11:16.076Z,31.44
2022-08-05T07:14:02.794Z,31.58
2022-08-05T07:18:08.590Z,31.65
2022-08-05T07:22:28.140Z,31.69
2022-08-05T07:24:59.602Z,31.70
2022-08-05T07:27:58.017Z,31.61
2022-08-05T07:30:39.005Z,31.73
2022-08-05T07:33:10.355Z,31.78
2022-08-05T07:36:01.694Z,31.75
2022-08-05T07:38:34.006Z,31.93
2022-08-05T07:41:35.124Z,31.96
2022-08-05T07:43:56.647Z,32.04
2022-08-05T07:46:26.345Z,32.13
2022-08-05T07:49:02.068Z,32.01
2022-08-05T07:51:40.997Z,32.08
2022-08-05T07:54:23.281Z,32.15
2022-08-05T07:57:01.988Z,32.24
2022-08-05T07:59:44.291Z,32.38
2022-08-05T08:02:16.565Z,32.27
2022-08-05T08:04:49.504Z,32.32
2022-08-05T08:07:22.396Z,32.49
2022-08-05T08:09:52.759Z,32.43
2022-08-05T08:12:35.486Z,32.41
2022-08-05T08:15:15.623Z,32.35
2022-08-05T08:17:52.699Z,32.65
2022-08-05T08:21:00.887Z,32.98
2022-08-05T08:24:03.271Z,33.07
2022-08-05T08:26:02.832Z,33.18
2022-08-05T08:28:37.375Z,33.38
2022-08-05T08:31:10.061Z,33.35
2022-08-05T08:33:43.665Z,33.34
2022-08-05T08:36:38.218Z,33.32
2022-08-05T08:39:01.655Z,33.57
2022-08-05T08:41:51.873Z,33.95
2022-08-05T08:45:21.319Z,34.17
2022-08-05T08:47:47.750Z,34.19
2022-08-05T08:50:23.069Z,34.15
2022-08-05T08:52:57.253Z,34.23
2022-08-05T08:55:31.944Z,34.38
2022-08-05T08:58:15.509Z,34.21
2022-08-05T09:00:44.397Z,34.50
2022-08-05T09:03:19.215Z,34.58
2022-08-05T09:06:07.703Z,34.92
2022-08-05T09:08:37.254Z,35.25
2022-08-05T09:14:54.306Z,35.44
2022-08-05T09:17:42.459Z,35.27
2022-08-05T09:20:37.612Z,35.42
2022-08-05T09:23:21.945Z,35.55
2022-08-05T09:26:20.889Z,35.05
2022-08-05T09:28:49.893Z,35.67
2022-08-05T09:31:44.096Z,34.73
2022-08-05T09:34:07.688Z,34.54
2022-08-05T09:36:54.700Z,34.70
2022-08-05T09:39:39.563Z,34.71
2022-08-05T09:42:20.247Z,35.01
2022-08-05T09:44:56.483Z,34.43
2022-08-05T09:47:49.063Z,34.27
2022-08-05T09:50:37.753Z,34.20
2022-08-05T09:53:08.912Z,34.33
2022-08-05T09:55:56.349Z,34.03
2022-08-05T09:58:29.138Z,34.25
2022-08-05T10:01:14.738Z,34.36
2022-08-05T10:04:00.566Z,34.11
2022-08-05T10:06:28.637Z,34.37
2022-08-05T10:09:27.389Z,34.60
2022-08-05T10:11:55.308Z,34.66
2022-08-05T10:14:26.892Z,35.05
2022-08-05T10:16:59.353Z,35.39
2022-08-05T10:20:03.205Z,35.11
2022-08-05T10:22:29.518Z,35.71
2022-08-05T10:24:58.583Z,35.67
2022-08-05T10:28:13.636Z,35.52
2022-08-05T10:32:46.845Z,35.32
2022-08-05T10:33:03.332Z,35.29
2022-08-05T10:35:40.352Z,35.34
2022-08-05T10:38:13.000Z,35.86
2022-08-05T10:40:58.108Z,35.78
2022-08-05T10:43:49.215Z,35.11
2022-08-05T10:46:24.098Z,34.90
2022-08-05T10:49:01.558Z,35.09
2022-08-05T10:51:57.690Z,35.51
2022-08-05T10:54:56.305Z,35.56
2022-08-05T10:57:30.850Z,35.26
2022-08-05T11:00:30.010Z,35.28
2022-08-05T11:03:23.856Z,34.74
2022-08-05T11:06:15.604Z,35.34
2022-08-05T11:09:18.587Z,35.55
2022-08-05T11:11:54.069Z,35.44
2022-08-05T11:17:59.923Z,35.42
2022-08-05T11:20:39.286Z,35.90
2022-08-05T11:23:56.912Z,35.72
2022-08-05T11:26:28.732Z,35.63
2022-08-05T11:29:12.538Z,35.45
2022-08-05T11:31:58.123Z,35.21
2022-08-05T11:34:52.037Z,35.76
2022-08-05T11:38:28.525Z,35.69
2022-08-05T11:41:34.573Z,35.25
2022-08-05T11:44:12.760Z,36.00
2022-08-05T11:47:10.986Z,35.64
2022-08-05T11:49:49.791Z,35.74
2022-08-05T11:52:31.022Z,35.79
2022-08-05T11:55:07.740Z,36.05
2022-08-05T11:58:08.057Z,36.18
2022-08-05T12:00:38.256Z,35.45
2022-08-05T12:03:29.392Z,35.36
2022-08-05T12:06:10.167Z,36.08
2022-08-05T12:08:49.774Z,35.93
2022-08-05T12:11:24.746Z,36.07
2022-08-05T12:13:59.424Z,36.45
2022-08-05T12:16:38.728Z,36.04
2022-08-05T12:19:08.448Z,36.62
2022-08-05T12:21:42.864Z,35.47
2022-08-05T12:24:17.228Z,35.52
2022-08-05T12:26:50.153Z,35.65
2022-08-05T12:29:22.835Z,35.64
2022-08-05T12:31:56.402Z,35.05
2022-08-05T12:34:26.947Z,35.13
2022-08-05T12:36:55.943Z,35.24
2022-08-05T12:39:28.008Z,35.32
2022-08-05T12:41:59.952Z,35.08
2022-08-05T12:44:33.201Z,35.26
2022-08-05T12:47:02.519Z,35.23
2022-08-05T12:50:03.449Z,34.53
2022-08-05T12:52:39.425Z,35.00
2022-08-05T12:55:25.793Z,35.20
2022-08-05T12:58:51.343Z,35.39
2022-08-05T13:02:01.665Z,35.29
2022-08-05T13:03:41.799Z,35.55
2022-08-05T13:06:16.174Z,35.45
2022-08-05T13:08:50.704Z,35.47
2022-08-05T13:12:00.019Z,35.45
2022-08-05T13:14:36.445Z,34.65
2022-08-05T13:17:10.921Z,35.28
2022-08-05T13:19:50.985Z,35.31
2022-08-05T13:22:29.740Z,34.99
2022-08-05T13:25:00.733Z,35.15
2022-08-05T13:27:38.016Z,35.09
2022-08-05T13:30:33.861Z,35.76
2022-08-05T13:32:56.517Z,35.43
2022-08-05T13:35:42.849Z,35.69
2022-08-05T13:38:20.499Z,36.03
2022-08-05T13:40:58.611Z,35.43
2022-08-05T13:43:43.962Z,35.70
2022-08-05T13:46:14.202Z,36.01
2022-08-05T13:48:57.410Z,35.61
2022-08-05T13:51:29.878Z,36.05
2022-08-05T13:54:11.983Z,35.97
2022-08-05T13:56:51.132Z,35.10
2022-08-05T13:59:30.660Z,35.44
2022-08-05T14:02:00.508Z,35.16
2022-08-05T14:04:51.128Z,34.97
2022-08-05T14:07:25.778Z,35.09
2022-08-05T14:10:18.687Z,34.84
2022-08-05T14:12:48.930Z,34.72
2022-08-05T14:16:08.113Z,34.98
2022-08-05T14:18:04.952Z,34.90
2022-08-05T14:20:32.255Z,34.61
2022-08-05T14:23:00.216Z,34.81
2022-08-05T14:25:30.450Z,34.73
2022-08-05T14:27:58.655Z,34.76
2022-08-05T14:30:27.809Z,34.79
2022-08-05T14:32:56.718Z,35.15
2022-08-05T14:35:37.519Z,35.09
2022-08-05T14:38:32.093Z,34.94
2022-08-05T14:41:02.039Z,35.23
2022-08-05T14:43:58.767Z,35.33
2022-08-05T14:46:28.284Z,35.82
2022-08-05T14:49:06.400Z,35.69
2022-08-05T14:51:37.640Z,35.79
2022-08-05T14:54:28.527Z,35.49
2022-08-05T14:56:54.897Z,35.12
2022-08-05T14:59:22.485Z,35.69
2022-08-05T15:01:50.454Z,35.67
2022-08-05T15:04:22.492Z,35.90
2022-08-05T15:06:51.408Z,36.12
2022-08-05T15:09:52.463Z,35.93
2022-08-05T15:12:11.862Z,36.07
2022-08-05T15:14:49.889Z,35.88
2022-08-05T15:17:47.132Z,35.95
2022-08-05T15:20:18.712Z,35.29
2022-08-05T15:22:54.400Z,35.20
2022-08-05T15:25:51.389Z,34.77
2022-08-05T15:28:15.539Z,34.68
2022-08-05T15:30:45.900Z,34.43
2022-08-05T15:34:04.376Z,33.88
2022-08-05T15:36:05.982Z,33.82
2022-08-05T15:38:44.752Z,33.27
2022-08-05T15:41:23.078Z,32.41
2022-08-05T15:43:54.812Z,32.47
2022-08-05T15:46:24.027Z,32.06
2022-08-05T15:48:52.910Z,31.98
2022-08-05T15:52:09.871Z,32.00
2022-08-05T15:54:17.804Z,31.83
2022-08-05T15:56:44.896Z,31.65
2022-08-05T15:59:22.042Z,31.37
2022-08-05T16:01:52.600Z,31.31
2022-08-05T16:04:25.360Z,30.81
2022-08-05T16:06:55.688Z,30.93
2022-08-05T16:09:23.951Z,30.36
2022-08-05T16:11:53.766Z,29.54
2022-08-05T16:14:22.290Z,29.39
2022-08-05T16:16:49.736Z,29.52
2022-08-05T16:20:03.744Z,29.28
2022-08-05T16:22:10.847Z,29.37
2022-08-05T16:24:51.370Z,29.74
2022-08-05T16:27:32.234Z,29.94
2022-08-05T16:30:23.313Z,30.21
2022-08-05T16:32:54.474Z,30.41
2022-08-05T16:35:27.856Z,30.51
2022-08-05T16:38:01.942Z,30.61
2022-08-05T16:40:48.103Z,30.50
2022-08-05T16:43:24.198Z,30.40
2022-08-05T16:46:06.775Z,30.38
2022-08-05T16:48:40.499Z,30.45
2022-08-05T16:51:09.956Z,30.48
2022-08-05T16:54:06.017Z,30.30
2022-08-05T16:56:31.084Z,30.38
2022-08-05T16:58:59.045Z,30.39
2022-08-05T17:01:52.604Z,30.43
2022-08-05T17:04:16.232Z,30.33
2022-08-05T17:06:46.009Z,30.54
2022-08-05T17:09:24.448Z,30.51
2022-08-05T17:12:00.045Z,30.63
2022-08-05T17:14:37.712Z,30.67
2022-08-05T17:17:14.305Z,30.56
2022-08-05T17:19:45.374Z,30.69
2022-08-05T17:22:24.366Z,30.75
2022-08-05T17:24:57.691Z,30.83
2022-08-05T17:27:33.855Z,30.77
2022-08-05T17:30:03.227Z,30.66
2022-08-05T17:32:30.810Z,30.75
2022-08-05T17:35:01.351Z,30.76
2022-08-05T17:37:40.188Z,30.77
2022-08-05T17:40:12.152Z,30.76
2022-08-05T17:42:43.083Z,30.77
2022-08-05T17:45:21.764Z,30.73
2022-08-05T17:47:56.092Z,30.78
2022-08-05T17:50:29.658Z,30.65
2022-08-05T17:53:08.341Z,30.43
2022-08-05T17:55:39.894Z,29.88
2022-08-05T17:58:14.429Z,29.89
2022-08-05T18:00:47.741Z,30.35
2022-08-05T18:06:11.437Z,30.47
2022-08-05T18:08:44.625Z,30.41
2022-08-05T18:11:24.026Z,30.49
2022-08-05T18:14:00.418Z,30.74
2022-08-05T18:16:30.651Z,30.75
2022-08-05T18:19:01.547Z,30.62
2022-08-05T18:22:07.490Z,30.10
2022-08-05T18:24:18.966Z,29.66
2022-08-05T18:26:48.333Z,29.69
2022-08-05T18:29:16.725Z,29.64
2022-08-05T18:31:44.418Z,29.59
2022-08-05T18:34:12.717Z,29.69
2022-08-05T18:36:41.134Z,29.74
2022-08-05T18:39:22.201Z,29.74
2022-08-05T18:42:03.604Z,29.82
2022-08-05T18:44:49.219Z,29.84
2022-08-05T18:47:22.987Z,29.66
2022-08-05T18:50:12.877Z,29.55
2022-08-05T18:52:50.864Z,29.58
2022-08-05T18:55:19.598Z,29.53
2022-08-05T18:57:52.504Z,29.62
2022-08-05T19:00:28.592Z,29.44
2022-08-05T19:03:04.021Z,29.36
2022-08-05T19:06:11.241Z,29.36
2022-08-05T19:08:21.685Z,29.28
2022-08-05T19:10:50.273Z,29.35
2022-08-05T19:13:18.304Z,29.50
2022-08-05T19:15:59.408Z,29.40
2022-08-05T19:18:31.641Z,29.44
2022-08-05T19:20:59.864Z,29.61
2022-08-05T19:24:06.101Z,29.63
2022-08-05T19:26:16.725Z,29.73
2022-08-05T19:28:44.182Z,29.82
2022-08-05T19:31:18.118Z,29.67
2022-08-05T19:33:56.398Z,29.67
2022-08-05T19:36:29.142Z,29.83
2022-08-05T19:39:00.959Z,29.67
2022-08-05T19:42:06.460Z,29.73
2022-08-05T19:44:18.486Z,29.70
2022-08-05T19:46:46.222Z,29.62
2022-08-05T19:49:17.227Z,29.64
2022-08-05T19:52:05.440Z,29.81
2022-08-05T19:54:38.169Z,29.85
2022-08-05T19:57:09.426Z,29.79
2022-08-05T20:00:00.188Z,29.80
2022-08-05T20:02:33.777Z,29.92
2022-08-05T20:05:04.703Z,29.96
2022-08-05T20:07:47.934Z,29.79
2022-08-05T20:10:58.916Z,29.80
2022-08-05T20:13:58.940Z,29.83
2022-08-05T20:16:38.227Z,29.48
2022-08-05T20:19:05.712Z,29.56
2022-08-05T20:21:34.145Z,29.52
2022-08-05T20:24:05.339Z,29.62
2022-08-05T20:26:32.743Z,29.65
2022-08-05T20:29:01.139Z,29.53
2022-08-05T20:31:43.086Z,29.61
2022-08-05T20:35:01.085Z,29.54
2022-08-05T20:38:08.121Z,29.58
2022-08-05T20:40:18.008Z,29.53
2022-08-05T20:42:45.488Z,29.54
2022-08-05T20:45:13.046Z,29.71
2022-08-05T20:47:46.984Z,29.61
2022-08-05T20:50:19.227Z,29.76
2022-08-05T20:52:49.464Z,29.75
2022-08-05T20:56:07.324Z,29.73
2022-08-05T20:58:06.857Z,29.77
2022-08-05T21:00:49.875Z,29.97
2022-08-05T21:03:22.523Z,30.00
2022-08-05T21:05:55.526Z,29.94
2022-08-05T21:08:42.016Z,29.97
2022-08-05T21:11:11.821Z,30.13
2022-08-05T21:13:47.443Z,30.06
2022-08-05T21:16:29.429Z,30.07
2022-08-05T21:19:00.313Z,30.07
2022-08-05T21:21:39.882Z,30.10
2022-08-05T21:24:13.146Z,30.00
2022-08-05T21:26:41.646Z,30.00
2022-08-05T21:29:12.424Z,29.99
2022-08-05T21:31:41.606Z,30.02
2022-08-05T21:34:10.569Z,29.98
2022-08-05T21:36:39.358Z,29.96
2022-08-05T21:39:14.386Z,29.96
2022-08-05T21:41:52.623Z,29.93
2022-08-05T21:44:28.441Z,29.87
2022-08-05T21:46:58.774Z,29.90
2022-08-05T21:50:00.227Z,29.90
2022-08-05T21:52:27.610Z,29.82
2022-08-05T21:54:57.811Z,29.85
2022-08-05T21:57:35.064Z,29.83
2022-08-05T22:00:05.798Z,29.86
2022-08-05T22:02:41.682Z,29.86
2022-08-05T22:05:16.537Z,29.85
2022-08-05T22:08:02.000Z,29.83
2022-08-05T22:10:29.882Z,29.84
2022-08-05T22:13:10.833Z,29.89
2022-08-05T22:16:01.366Z,29.83
2022-08-05T22:18:34.582Z,29.80
2022-08-05T22:21:04.053Z,29.81
2022-08-05T22:24:01.922Z,29.88
2022-08-05T22:26:50.508Z,29.90
2022-08-05T22:29:18.797Z,29.91
2022-08-05T22:31:55.330Z,29.86
2022-08-05T22:34:28.762Z,29.83
2022-08-05T22:36:58.710Z,29.80
2022-08-05T22:39:33.051Z,29.79
2022-08-05T22:42:09.773Z,29.74
2022-08-05T22:44:41.016Z,29.66
2022-08-05T22:47:14.352Z,29.71
2022-08-05T22:50:18.102Z,29.65
2022-08-05T22:52:47.198Z,29.70
2022-08-05T22:55:19.498Z,29.77
2022-08-05T22:57:50.674Z,29.81
2022-08-05T23:00:20.903Z,29.81
2022-08-05T23:02:50.398Z,29.81
2022-08-05T23:05:19.074Z,29.85
2022-08-05T23:07:50.273Z,29.79
2022-08-05T23:10:20.099Z,29.76
2022-08-05T23:12:55.226Z,29.72
2022-08-05T23:15:29.912Z,29.74
2022-08-05T23:18:03.342Z,29.80
2022-08-05T23:20:37.236Z,29.80
2022-08-05T23:23:08.152Z,29.78
2022-08-05T23:25:53.008Z,29.81
2022-08-05T23:28:29.501Z,29.77
2022-08-05T23:31:16.513Z,29.75
2022-08-05T23:34:05.544Z,29.62
2022-08-05T23:36:40.332Z,29.46
2022-08-05T23:39:17.398Z,29.52
2022-08-05T23:41:59.781Z,29.53
2022-08-05T23:44:31.087Z,29.49
2022-08-05T23:47:14.534Z,29.61
2022-08-05T23:49:47.002Z,29.63
2022-08-05T23:52:27.591Z,29.69
2022-08-05T23:54:57.690Z,29.72
2022-08-05T23:57:28.309Z,29.75
